Time;durP1;ratioP1;P1;durP2;ratioP2;P2;SDS_P1;SDS_P2;PMS_P1;PMS_P2;Temp;Humidity;BMP_temperature;BMP_pressure;BME280_temperature;BME280_humidity;BME280_pressure;Samples;Min_cycle;Max_cycle;Signal;HPM_P1;HPM_P2
2022/12/15 00:40:03;;;;;;;;;;;-4.10;99.90;;;;;;5044648;27;208677;-69
2022/12/15 00:42:29;;;;;;;;;;;-4.10;99.90;;;;;;5036678;28;19924;-69
2022/12/15 00:44:55;;;;;;;;;;;-4.10;99.90;;;;;;5047073;28;207872;-69
2022/12/15 00:47:21;;;;;;;;;;;-4.10;99.90;;;;;;5018297;28;256117;-69
2022/12/15 01:20:19;;;;;;;;;;;-3.90;99.90;;;;;;5060252;28;207522;-70
2022/12/15 01:22:48;;;;;;;;;;;-3.80;99.90;;;;;;5015414;28;19928;-70
2022/12/15 01:25:15;;;;;;;;;;;-3.80;99.90;;;;;;5011019;28;224556;-70
2022/12/15 01:27:41;;;;;;;;;;;-3.70;99.90;;;;;;5071135;28;19924;-71
2022/12/15 01:30:08;;;;;;;;;;;-3.60;99.90;;;;;;5045305;27;213081;-71
2022/12/15 01:32:34;;;;;;;;;;;-3.60;99.90;;;;;;5028143;28;19924;-70
2022/12/15 01:35:00;;;;;;;;;;;-3.50;99.90;;;;;;5026073;28;209452;-70
2022/12/15 01:37:26;;;;;;;;;;;-3.50;99.90;;;;;;5018133;28;19929;-70
2022/12/15 01:42:37;;;;;;;;;;;-3.30;99.90;;;;;;5008297;28;206877;-70
2022/12/15 01:45:21;;;;;;;;;;;-3.20;99.90;;;;;;5007277;28;206788;-70
2022/12/15 01:47:49;;;;;;;;;;;-3.20;99.90;;;;;;5063529;28;19931;-70
2022/12/15 01:50:15;;;;;;;;;;;-3.10;99.90;;;;;;5020149;28;216171;-70
2022/12/15 01:52:41;;;;;;;;;;;-3.10;99.90;;;;;;5064676;28;20286;-70
2022/12/15 01:55:07;;;;;;;;;;;-3.00;99.90;;;;;;5021175;28;207071;-70
2022/12/15 01:57:35;;;;;;;;;;;-3.00;99.90;;;;;;5064331;28;19929;-69
2022/12/15 02:00:03;;;;;;;;;;;-3.00;99.90;;;;;;5021517;28;224325;-70
2022/12/15 02:02:29;;;;;;;;;;;-3.10;99.90;;;;;;5063912;28;19946;-70
2022/12/15 02:04:57;;;;;;;;;;;-3.00;99.90;;;;;;5050720;28;211956;-70
2022/12/15 02:07:23;;;;;;;;;;;-3.00;99.90;;;;;;5016712;28;19941;-71
2022/12/15 02:09:51;;;;;;;;;;;-3.00;99.90;;;;;;5065207;28;19939;-70
2022/12/15 02:12:32;;;;;;;;;;;-3.00;99.90;;;;;;4983456;28;71989;-68
2022/12/15 02:15:09;;;;;;;;;;;-3.00;99.90;;;;;;5034053;28;210634;-69
2022/12/15 02:17:38;;;;;;;;;;;-3.00;99.90;;;;;;5054356;28;19936;-69
2022/12/15 02:20:04;;;;;;;;;;;-2.90;99.90;;;;;;5013891;28;209851;-69
2022/12/15 02:22:49;;;;;;;;;;;-3.00;99.90;;;;;;5032538;28;19924;-70
2022/12/15 02:25:17;;;;;;;;;;;-2.90;99.90;;;;;;5052184;28;158108;-70
2022/12/15 02:28:10;;;;;;;;;;;-2.90;99.90;;;;;;5042314;28;19939;-69
2022/12/15 02:30:36;;;;;;;;;;;-2.90;99.90;;;;;;5021763;28;218720;-69
2022/12/15 02:33:04;;;;;;;;;;;-2.90;99.90;;;;;;5086492;28;20539;-70
2022/12/15 02:35:39;;;;;;;;;;;-2.80;99.90;;;;;;5013145;28;203386;-70
2022/12/15 02:38:07;;;;;;;;;;;-2.80;99.90;;;;;;5061187;28;19939;-70
2022/12/15 02:40:33;;;;;;;;;;;-2.80;99.90;;;;;;5035800;28;167063;-70
2022/12/15 02:43:01;;;;;;;;;;;-2.80;99.90;;;;;;5050688;28;19924;-70
2022/12/15 02:45:33;;;;;;;;;;;-2.80;99.90;;;;;;5019368;28;132659;-69
2022/12/15 02:48:18;;;;;;;;;;;-2.80;99.90;;;;;;5073101;28;19928;-70
2022/12/15 02:51:10;;;;;;;;;;;-2.90;99.90;;;;;;5012420;28;136977;-71
2022/12/15 02:54:03;;;;;;;;;;;-2.90;99.90;;;;;;5062302;28;20285;-70
2022/12/15 02:56:49;;;;;;;;;;;-2.90;99.90;;;;;;5031356;28;103418;-70
2022/12/15 02:59:22;;;;;;;;;;;-2.90;99.90;;;;;;5076649;28;19924;-70
2022/12/15 03:01:51;;;;;;;;;;;-2.90;99.90;;;;;;5027488;28;207495;-70
2022/12/15 03:04:18;;;;;;;;;;;-3.00;99.90;;;;;;5061534;28;19920;-70
2022/12/15 03:06:44;;;;;;;;;;;-3.00;99.90;;;;;;4981256;28;212699;-70
2022/12/15 03:09:11;;;;;;;;;;;-3.00;99.90;;;;;;5064327;28;19932;-69
2022/12/15 03:11:37;;;;;;;;;;;-3.00;99.90;;;;;;5009118;27;153646;-70
2022/12/15 03:14:03;;;;;;;;;;;-3.00;99.90;;;;;;5068472;28;19928;-70
2022/12/15 03:16:29;;;;;;;;;;;-3.00;99.90;;;;;;4987753;28;156926;-69
2022/12/15 03:18:55;;;;;;;;;;;-3.00;99.90;;;;;;5058764;28;19924;-70
2022/12/15 03:21:21;;;;;;;;;;;-3.00;99.90;;;;;;4999708;28;95648;-70
2022/12/15 03:23:47;;;;;;;;;;;-3.00;99.90;;;;;;5055239;28;19928;-70
2022/12/15 03:26:13;;;;;;;;;;;-3.00;99.90;;;;;;4997953;28;211438;-70
2022/12/15 03:28:39;;;;;;;;;;;-3.00;99.90;;;;;;5044594;28;19932;-70
2022/12/15 03:31:05;;;;;;;;;;;-3.00;99.90;;;;;;5006794;28;207880;-70
2022/12/15 03:33:31;;;;;;;;;;;-3.00;99.90;;;;;;5052286;28;20025;-70
2022/12/15 03:35:57;;;;;;;;;;;-3.00;99.90;;;;;;5034211;28;197218;-70
2022/12/15 03:38:23;;;;;;;;;;;-3.00;99.90;;;;;;5048205;28;19920;-68
2022/12/15 03:40:49;;;;;;;;;;;-3.00;99.90;;;;;;5008151;28;192424;-69
2022/12/15 03:43:15;;;;;;;;;;;-2.90;99.90;;;;;;5020626;28;19928;-69
2022/12/15 03:45:41;;;;;;;;;;;-2.90;99.90;;;;;;5016868;28;143407;-68
2022/12/15 03:48:07;;;;;;;;;;;-2.90;99.90;;;;;;5037048;28;19969;-69
2022/12/15 03:50:33;;;;;;;;;;;-2.90;99.90;;;;;;5004375;28;208114;-69
2022/12/15 03:53:00;;;;;;;;;;;-2.90;99.90;;;;;;5056375;28;19928;-70
2022/12/15 03:55:29;;;;;;;;;;;-2.90;99.90;;;;;;5007131;28;208719;-70
2022/12/15 03:57:56;;;;;;;;;;;-2.90;99.90;;;;;;5058253;28;19928;-70
2022/12/15 04:00:23;;;;;;;;;;;-2.90;99.90;;;;;;5020960;28;157837;-70
2022/12/15 04:02:49;;;;;;;;;;;-2.90;99.90;;;;;;5071823;28;19925;-70
2022/12/15 04:05:25;;;;;;;;;;;-2.90;99.90;;;;;;5005233;28;209006;-71
2022/12/15 04:07:55;;;;;;;;;;;-2.90;99.90;;;;;;5029112;28;19931;-70
2022/12/15 04:10:22;;;;;;;;;;;-2.90;99.90;;;;;;5021449;28;207440;-71
2022/12/15 04:12:48;;;;;;;;;;;-2.90;99.90;;;;;;5010921;28;20011;-70
2022/12/15 04:15:14;;;;;;;;;;;-2.90;99.90;;;;;;5018306;28;208170;-70
2022/12/15 04:17:40;;;;;;;;;;;-2.90;99.90;;;;;;5073832;28;19920;-71
2022/12/15 04:20:10;;;;;;;;;;;-2.90;99.90;;;;;;5017888;28;211849;-70
2022/12/15 04:22:41;;;;;;;;;;;-2.90;99.90;;;;;;5038330;28;19916;-70
2022/12/15 05:33:58;;;;;;;;;;;-2.50;99.90;;;;;;5058190;28;19924;-70
2022/12/15 05:36:24;;;;;;;;;;;-2.50;99.90;;;;;;5020334;28;173053;-71
2022/12/15 05:38:50;;;;;;;;;;;-2.50;99.90;;;;;;5058466;28;19935;-71
2022/12/15 05:41:17;;;;;;;;;;;-2.50;99.90;;;;;;5003962;28;206173;-70
2022/12/15 05:43:43;;;;;;;;;;;-2.50;99.90;;;;;;5046701;28;19921;-71
2022/12/15 05:46:09;;;;;;;;;;;-2.50;99.90;;;;;;5012500;28;216190;-70
2022/12/15 05:48:35;;;;;;;;;;;-2.40;99.90;;;;;;5051743;28;20447;-70
2022/12/15 05:51:02;;;;;;;;;;;-2.40;99.90;;;;;;5003259;28;169367;-71
2022/12/15 05:53:28;;;;;;;;;;;-2.40;99.90;;;;;;5049362;28;19931;-70
2022/12/15 05:55:59;;;;;;;;;;;-2.40;99.90;;;;;;4990583;28;202309;-71
2022/12/15 05:58:25;;;;;;;;;;;-2.50;99.90;;;;;;5047412;28;19946;-71
2022/12/15 06:00:51;;;;;;;;;;;-2.40;99.90;;;;;;5003632;28;157461;-72
2022/12/15 06:03:17;;;;;;;;;;;-2.40;99.90;;;;;;5042767;28;19929;-71
2022/12/15 06:05:43;;;;;;;;;;;-2.40;99.90;;;;;;5011982;28;228947;-71
2022/12/15 06:08:09;;;;;;;;;;;-2.40;99.90;;;;;;5057030;28;19924;-71
2022/12/15 06:10:35;;;;;;;;;;;-2.30;99.90;;;;;;5007007;28;199711;-72
2022/12/15 06:13:01;;;;;;;;;;;-2.30;99.90;;;;;;5032183;28;19921;-72
2022/12/15 06:15:37;;;;;;;;;;;-2.20;99.90;;;;;;5032032;28;49787;-71
2022/12/15 06:18:03;;;;;;;;;;;-2.20;99.90;;;;;;5071281;28;19921;-71
2022/12/15 06:20:29;;;;;;;;;;;-2.20;99.90;;;;;;5008357;28;211980;-71
2022/12/15 06:22:55;;;;;;;;;;;-2.20;99.90;;;;;;5035650;28;19919;-70
2022/12/15 06:25:21;;;;;;;;;;;-2.20;99.90;;;;;;5051401;27;200130;-72
2022/12/15 06:27:47;;;;;;;;;;;-2.20;99.90;;;;;;5049360;28;19928;-72
2022/12/15 06:30:15;;;;;;;;;;;-2.20;99.90;;;;;;4999562;28;218104;-72
2022/12/15 06:32:41;;;;;;;;;;;-2.20;99.90;;;;;;5074093;28;20413;-71
2022/12/15 06:35:07;;;;;;;;;;;-2.10;99.90;;;;;;5016581;28;208194;-71
2022/12/15 06:37:33;;;;;;;;;;;-2.00;99.90;;;;;;5054095;28;19928;-70
2022/12/15 06:39:59;;;;;;;;;;;-2.00;99.90;;;;;;5027306;28;209266;-71
2022/12/15 06:42:25;;;;;;;;;;;-2.00;99.90;;;;;;5048538;28;19931;-71
2022/12/15 06:44:51;;;;;;;;;;;-2.00;99.90;;;;;;5055548;28;208978;-71
2022/12/15 06:47:17;;;;;;;;;;;-1.90;99.90;;;;;;5024214;28;209395;-70
2022/12/15 06:49:43;;;;;;;;;;;-1.90;99.90;;;;;;5082885;28;20019;-70
2022/12/15 06:52:10;;;;;;;;;;;-1.80;99.90;;;;;;5010115;28;257511;-71
2022/12/15 06:54:36;;;;;;;;;;;-1.80;99.90;;;;;;5044319;28;20414;-71
2022/12/15 06:57:02;;;;;;;;;;;-1.80;99.90;;;;;;4961098;28;170681;-71
2022/12/15 06:59:27;;;;;;;;;;;-1.80;99.90;;;;;;5003423;28;19936;-71
2022/12/15 07:01:53;;;;;;;;;;;-1.80;99.90;;;;;;4942958;28;212802;-70
2022/12/15 07:04:19;;;;;;;;;;;-1.80;99.90;;;;;;5016182;28;20020;-70
2022/12/15 07:06:45;;;;;;;;;;;-1.80;99.90;;;;;;4978826;28;127889;-70
2022/12/15 07:09:12;;;;;;;;;;;-1.80;99.90;;;;;;4998813;28;19995;-70
2022/12/15 07:11:39;;;;;;;;;;;-1.80;99.90;;;;;;5007399;28;36737;-71
2022/12/15 07:14:08;;;;;;;;;;;-1.80;99.90;;;;;;5015506;28;20035;-71
2022/12/15 07:16:34;;;;;;;;;;;-1.80;99.90;;;;;;4985377;28;184276;-72
2022/12/15 07:19:00;;;;;;;;;;;-1.80;99.90;;;;;;5022105;28;19921;-72
2022/12/15 07:21:26;;;;;;;;;;;-1.80;99.90;;;;;;4988513;28;187934;-72
2022/12/15 07:23:52;;;;;;;;;;;-1.80;99.90;;;;;;5026012;28;19925;-72
2022/12/15 07:26:18;;;;;;;;;;;-1.70;99.90;;;;;;4992309;28;197200;-72
2022/12/15 07:28:44;;;;;;;;;;;-1.70;99.90;;;;;;5020848;28;19924;-72
2022/12/15 07:31:10;;;;;;;;;;;-1.70;99.90;;;;;;4983519;28;208492;-72
2022/12/15 07:33:36;;;;;;;;;;;-1.70;99.90;;;;;;5078202;28;19932;-72
2022/12/15 07:36:03;;;;;;;;;;;-1.60;99.90;;;;;;5001997;28;208643;-72
2022/12/15 07:38:29;;;;;;;;;;;-1.60;99.90;;;;;;5063774;28;19920;-72
2022/12/15 07:40:59;;;;;;;;;;;-1.60;99.90;;;;;;5046230;28;208763;-72
2022/12/15 07:43:25;;;;;;;;;;;-1.70;99.90;;;;;;5082722;28;19924;-72
2022/12/15 07:45:52;;;;;;;;;;;-1.70;99.90;;;;;;5019317;28;194835;-72
2022/12/15 07:48:18;;;;;;;;;;;-1.70;99.90;;;;;;5068562;28;20370;-70
2022/12/15 07:50:44;;;;;;;;;;;-1.80;99.90;;;;;;5020320;28;210206;-70
2022/12/15 07:53:10;;;;;;;;;;;-1.80;99.90;;;;;;5062652;28;20023;-71
2022/12/15 07:55:36;;;;;;;;;;;-1.80;99.90;;;;;;5009239;28;211177;-71
2022/12/15 07:58:02;;;;;;;;;;;-1.80;99.90;;;;;;5044290;28;19932;-71
2022/12/15 08:00:28;;;;;;;;;;;-1.70;99.90;;;;;;4993290;28;210983;-72
2022/12/15 08:02:54;;;;;;;;;;;-1.70;99.90;;;;;;5058897;28;20401;-71
2022/12/15 08:05:20;;;;;;;;;;;-1.60;99.90;;;;;;5009108;28;171143;-71
2022/12/15 08:07:46;;;;;;;;;;;-1.60;99.90;;;;;;5038582;28;19964;-71
2022/12/15 08:10:12;;;;;;;;;;;-1.60;99.90;;;;;;5009625;28;204146;-72
2022/12/15 08:12:38;;;;;;;;;;;-1.50;99.90;;;;;;5045831;28;19928;-72
2022/12/15 08:15:04;;;;;;;;;;;-1.50;99.90;;;;;;5013319;28;213773;-72
2022/12/15 08:17:30;;;;;;;;;;;-1.50;99.90;;;;;;5079368;28;19944;-72
2022/12/15 08:19:56;;;;;;;;;;;-1.50;99.90;;;;;;5077636;27;211007;-72
2022/12/15 08:22:23;;;;;;;;;;;-1.50;99.90;;;;;;4992701;28;19924;-72
2022/12/15 08:24:49;;;;;;;;;;;-1.50;99.90;;;;;;5094524;28;19920;-72
2022/12/15 08:27:15;;;;;;;;;;;-1.50;99.90;;;;;;5013100;28;228086;-71
2022/12/15 08:29:41;;;;;;;;;;;-1.50;99.90;;;;;;5075252;28;20562;-70
2022/12/15 08:32:07;;;;;;;;;;;-1.50;99.90;;;;;;4994426;28;155316;-70
2022/12/15 08:34:33;;;;;;;;;;;-1.40;99.90;;;;;;5062665;28;19920;-71
2022/12/15 08:36:59;;;;;;;;;;;-1.50;99.90;;;;;;5016249;28;168069;-71
2022/12/15 08:39:25;;;;;;;;;;;-1.50;99.90;;;;;;5066450;28;20259;-70
2022/12/15 08:41:51;;;;;;;;;;;-1.50;99.90;;;;;;5019466;28;143561;-70
2022/12/15 08:44:17;;;;;;;;;;;-1.50;99.90;;;;;;5061143;28;20385;-71
2022/12/15 08:46:43;;;;;;;;;;;-1.50;99.90;;;;;;5014345;28;34160;-71
2022/12/15 08:49:09;;;;;;;;;;;-1.50;99.90;;;;;;5061027;28;19924;-71
2022/12/15 08:51:35;;;;;;;;;;;-1.50;99.90;;;;;;5024413;28;154994;-70
2022/12/15 08:54:01;;;;;;;;;;;-1.50;99.90;;;;;;5056554;28;19951;-71
2022/12/15 08:56:27;;;;;;;;;;;-1.50;99.90;;;;;;5015384;28;212322;-71
2022/12/15 08:58:55;;;;;;;;;;;-1.40;99.90;;;;;;5061197;28;19920;-71
2022/12/15 09:01:21;;;;;;;;;;;-1.40;99.90;;;;;;5020330;28;208849;-71
2022/12/15 09:03:47;;;;;;;;;;;-1.30;99.90;;;;;;5061051;28;20377;-71
2022/12/15 09:06:15;;;;;;;;;;;-1.30;99.90;;;;;;4979273;28;211390;-71
2022/12/15 09:08:40;;;;;;;;;;;-1.20;99.90;;;;;;5025778;28;19931;-71
2022/12/15 09:11:06;;;;;;;;;;;-1.10;99.90;;;;;;4983733;28;209109;-71
2022/12/15 09:13:32;;;;;;;;;;;-1.10;99.90;;;;;;5039042;28;19932;-71
2022/12/15 09:16:04;;;;;;;;;;;-1.10;99.90;;;;;;5041784;28;208284;-71
2022/12/15 09:18:30;;;;;;;;;;;-1.10;99.90;;;;;;5046583;28;19943;-70
2022/12/15 09:21:00;;;;;;;;;;;-1.00;99.90;;;;;;5026848;28;139858;-71
2022/12/15 09:23:26;;;;;;;;;;;-1.00;99.90;;;;;;5067754;28;19928;-71
2022/12/15 09:25:58;;;;;;;;;;;-0.90;99.90;;;;;;5028733;28;160901;-71
2022/12/15 09:28:23;;;;;;;;;;;-0.90;99.90;;;;;;5066052;28;19921;-71
2022/12/15 09:30:49;;;;;;;;;;;-0.80;99.90;;;;;;5024093;28;190439;-71
2022/12/15 09:33:15;;;;;;;;;;;-0.70;99.90;;;;;;5065942;28;19920;-71
2022/12/15 09:35:48;;;;;;;;;;;-0.60;99.90;;;;;;5017456;28;207020;-71
2022/12/15 09:38:14;;;;;;;;;;;-0.60;99.90;;;;;;5040570;28;19924;-70
2022/12/15 09:40:40;;;;;;;;;;;-0.50;99.90;;;;;;5022417;28;173365;-71
2022/12/15 09:43:11;;;;;;;;;;;-0.50;99.90;;;;;;5045433;28;20350;-71
2022/12/15 09:45:40;;;;;;;;;;;-0.50;99.90;;;;;;5032255;28;159314;-72
2022/12/15 09:48:09;;;;;;;;;;;-0.50;99.90;;;;;;5066513;27;19928;-71
2022/12/15 09:50:39;;;;;;;;;;;-0.50;99.90;;;;;;5019600;27;207842;-71
2022/12/15 09:53:09;;;;;;;;;;;-0.50;99.90;;;;;;5046058;28;19945;-70
2022/12/15 09:55:35;;;;;;;;;;;-0.50;99.90;;;;;;5011728;28;169302;-70
2022/12/15 09:58:10;;;;;;;;;;;-0.40;99.90;;;;;;5074085;28;19939;-70
2022/12/15 10:00:39;;;;;;;;;;;-0.40;99.90;;;;;;5040309;27;156596;-70
2022/12/15 10:03:20;;;;;;;;;;;-0.40;99.90;;;;;;5045564;28;20420;-70
2022/12/15 10:05:49;;;;;;;;;;;-0.30;99.90;;;;;;5017986;28;151843;-70
2022/12/15 10:08:15;;;;;;;;;;;-0.30;99.90;;;;;;5050788;28;19928;-70
2022/12/15 10:10:48;;;;;;;;;;;-0.20;99.90;;;;;;5012488;28;218278;-70
2022/12/15 10:13:17;;;;;;;;;;;-0.20;99.90;;;;;;5033692;28;19929;-70
2022/12/15 10:15:56;;;;;;;;;;;-0.10;99.90;;;;;;5037179;27;207451;-71
2022/12/15 10:18:23;;;;;;;;;;;-0.10;99.90;;;;;;5062942;28;20409;-71
2022/12/15 10:20:53;;;;;;;;;;;0.00;99.90;;;;;;4998398;28;188653;-71
2022/12/15 10:23:19;;;;;;;;;;;0.00;99.90;;;;;;5053692;28;20361;-71
2022/12/15 10:25:47;;;;;;;;;;;0.00;99.90;;;;;;5009809;28;223776;-72
2022/12/15 10:28:16;;;;;;;;;;;0.00;99.90;;;;;;5070398;28;19920;-71
2022/12/15 10:30:44;;;;;;;;;;;0.10;99.90;;;;;;5017275;27;210933;-71
2022/12/15 10:33:16;;;;;;;;;;;0.20;99.90;;;;;;5046923;28;19928;-71
2022/12/15 10:35:42;;;;;;;;;;;0.30;99.90;;;;;;5015881;28;144636;-71
2022/12/15 10:38:14;;;;;;;;;;;0.30;99.90;;;;;;5049441;28;19931;-72
2022/12/15 10:40:40;;;;;;;;;;;0.40;99.90;;;;;;5016893;28;183071;-72
2022/12/15 10:43:12;;;;;;;;;;;0.50;99.90;;;;;;5047451;28;20324;-73
2022/12/15 10:45:38;;;;;;;;;;;0.50;99.90;;;;;;5027407;28;207103;-73
2022/12/15 10:48:05;;;;;;;;;;;0.50;99.90;;;;;;5073602;28;19931;-73
2022/12/15 10:50:32;;;;;;;;;;;0.50;99.90;;;;;;5004344;28;55227;-73
2022/12/15 10:52:58;;;;;;;;;;;0.60;99.90;;;;;;5051262;28;19931;-72
2022/12/15 10:55:31;;;;;;;;;;;0.60;99.90;;;;;;5015942;28;198119;-73
2022/12/15 10:57:58;;;;;;;;;;;0.60;99.90;;;;;;5050242;28;19935;-74
2022/12/15 11:00:26;;;;;;;;;;;0.70;99.90;;;;;;5023241;28;136468;-75
2022/12/15 11:02:53;;;;;;;;;;;0.70;99.90;;;;;;5088568;28;19927;-75
2022/12/15 11:05:19;;;;;;;;;;;0.70;99.90;;;;;;5009807;28;154107;-75
2022/12/15 11:07:46;;;;;;;;;;;0.70;99.90;;;;;;5041451;28;20309;-76
2022/12/15 11:10:14;;;;;;;;;;;0.80;99.90;;;;;;5012986;28;209238;-76
2022/12/15 11:12:52;;;;;;;;;;;0.80;99.90;;;;;;5057646;28;19947;-76
2022/12/15 11:15:21;;;;;;;;;;;0.90;99.90;;;;;;5025913;28;75669;-76
2022/12/15 11:17:55;;;;;;;;;;;0.90;99.90;;;;;;5062160;28;19932;-78
2022/12/15 11:20:25;;;;;;;;;;;1.00;99.90;;;;;;5022783;28;208916;-77
2022/12/15 11:22:55;;;;;;;;;;;1.00;99.90;;;;;;5064191;28;19931;-78
2022/12/15 11:25:28;;;;;;;;;;;1.10;99.90;;;;;;5009788;28;200526;-78
2022/12/15 11:27:55;;;;;;;;;;;1.30;99.90;;;;;;5048523;28;19925;-77
2022/12/15 11:30:23;;;;;;;;;;;1.40;99.90;;;;;;4996614;28;162534;-77
2022/12/15 11:32:54;;;;;;;;;;;1.40;99.90;;;;;;5050775;28;20308;-77
2022/12/15 11:35:36;;;;;;;;;;;1.40;99.90;;;;;;5000614;28;209413;-77
2022/12/15 11:38:11;;;;;;;;;;;1.40;99.90;;;;;;5077812;28;21415;-77
2022/12/15 11:40:37;;;;;;;;;;;1.50;99.90;;;;;;4996186;28;208465;-77
2022/12/15 11:43:26;;;;;;;;;;;1.50;99.90;;;;;;5040440;28;20280;-77
2022/12/15 11:46:10;;;;;;;;;;;1.60;99.90;;;;;;4998864;28;201659;-77
2022/12/15 11:48:45;;;;;;;;;;;1.60;99.90;;;;;;5042458;28;20851;-77
2022/12/15 11:51:23;;;;;;;;;;;1.60;99.90;;;;;;5011131;28;147545;-76
2022/12/15 11:53:55;;;;;;;;;;;1.60;99.90;;;;;;5045177;28;19924;-76
2022/12/15 11:56:28;;;;;;;;;;;1.60;99.90;;;;;;4999719;28;143497;-77
2022/12/15 11:59:13;;;;;;;;;;;1.70;99.90;;;;;;5029996;28;19950;-77
2022/12/15 12:01:39;;;;;;;;;;;1.70;99.90;;;;;;4974957;28;193280;-76
2022/12/15 12:04:25;;;;;;;;;;;1.80;99.90;;;;;;5053196;28;20300;-77
2022/12/15 12:07:09;;;;;;;;;;;1.90;99.90;;;;;;5016715;28;206431;-77
2022/12/15 12:09:39;;;;;;;;;;;1.90;99.90;;;;;;5061331;28;19924;-77
2022/12/15 12:12:08;;;;;;;;;;;2.10;99.90;;;;;;5029188;28;151381;-77
2022/12/15 12:14:43;;;;;;;;;;;3.30;99.90;;;;;;5062588;28;19928;-77
2022/12/15 12:17:15;;;;;;;;;;;5.00;99.90;;;;;;4994669;28;147926;-78
2022/12/15 12:19:44;;;;;;;;;;;6.20;99.90;;;;;;5097121;28;19920;-78
2022/12/15 12:22:20;;;;;;;;;;;7.30;99.90;;;;;;5014149;28;156540;-78
2022/12/15 12:25:04;;;;;;;;;;;8.00;99.90;;;;;;5097098;28;19924;-78
2022/12/15 12:27:34;;;;;;;;;;;8.30;99.90;;;;;;4996859;28;160343;-78
2022/12/15 12:30:14;;;;;;;;;;;8.70;99.90;;;;;;5055978;28;208087;-77
2022/12/15 12:32:58;;;;;;;;;;;9.00;99.90;;;;;;5021729;28;19924;-77
2022/12/15 12:35:36;;;;;;;;;;;9.30;99.90;;;;;;5014144;28;208386;-77
2022/12/15 12:38:03;;;;;;;;;;;9.60;99.90;;;;;;5070684;28;19955;-77
2022/12/15 12:40:30;;;;;;;;;;;10.10;99.90;;;;;;5014183;28;192671;-77
2022/12/15 12:42:56;;;;;;;;;;;10.40;99.90;;;;;;5059461;28;19933;-76
2022/12/15 12:45:31;;;;;;;;;;;10.30;99.50;;;;;;5010945;28;208141;-76
2022/12/15 12:47:59;;;;;;;;;;;10.30;99.90;;;;;;5074116;28;19940;-77
2022/12/15 12:50:27;;;;;;;;;;;10.30;99.80;;;;;;5035100;28;201979;-77
2022/12/15 12:52:54;;;;;;;;;;;10.40;99.80;;;;;;5044592;28;19925;-77
2022/12/15 12:55:20;;;;;;;;;;;10.10;98.30;;;;;;5013422;28;183401;-77
2022/12/15 12:57:46;;;;;;;;;;;10.40;99.30;;;;;;5052981;28;19928;-77
2022/12/15 13:00:21;;;;;;;;;;;10.50;98.80;;;;;;5033814;28;208785;-77
2022/12/15 13:02:52;;;;;;;;;;;10.80;99.60;;;;;;5039324;28;19928;-77
2022/12/15 13:05:31;;;;;;;;;;;10.80;98.90;;;;;;5001313;28;215744;-77
2022/12/15 13:08:06;;;;;;;;;;;11.00;99.50;;;;;;5028948;28;19927;-76
2022/12/15 13:10:35;;;;;;;;;;;10.80;98.00;;;;;;5006699;28;213388;-74
2022/12/15 13:13:14;;;;;;;;;;;10.70;98.50;;;;;;5018380;28;19928;-75
2022/12/15 13:15:42;;;;;;;;;;;11.10;99.30;;;;;;5043224;27;208033;-77
2022/12/15 13:18:22;;;;;;;;;;;11.30;98.30;;;;;;5091844;28;19935;-77
2022/12/15 13:20:49;;;;;;;;;;;11.00;97.90;;;;;;5025449;28;209211;-76
2022/12/15 13:23:15;;;;;;;;;;;11.00;97.80;;;;;;5053824;28;19944;-76
2022/12/15 13:25:43;;;;;;;;;;;10.90;98.40;;;;;;5018256;28;177002;-76
2022/12/15 13:28:28;;;;;;;;;;;11.10;98.10;;;;;;5039387;28;19924;-76
2022/12/15 13:31:13;;;;;;;;;;;11.00;98.10;;;;;;5014220;28;156005;-76
2022/12/15 13:33:48;;;;;;;;;;;11.00;97.30;;;;;;5060975;28;20377;-77
2022/12/15 13:36:32;;;;;;;;;;;10.70;97.20;;;;;;5023629;28;208506;-74
2022/12/15 13:38:58;;;;;;;;;;;10.40;97.30;;;;;;5066274;28;19943;-75
2022/12/15 13:41:25;;;;;;;;;;;10.40;97.70;;;;;;4999160;28;206400;-75
2022/12/15 13:43:52;;;;;;;;;;;10.30;97.60;;;;;;5061490;28;20401;-76
2022/12/15 13:46:26;;;;;;;;;;;10.30;98.40;;;;;;5001133;28;162487;-75
2022/12/15 13:49:02;;;;;;;;;;;10.20;97.80;;;;;;5053448;28;19948;-75
2022/12/15 13:51:32;;;;;;;;;;;10.20;97.80;;;;;;4994732;28;169324;-75
2022/12/15 13:53:58;;;;;;;;;;;10.10;98.20;;;;;;5054646;28;19931;-76
2022/12/15 13:56:36;;;;;;;;;;;10.00;98.20;;;;;;5023221;28;160056;-75
2022/12/15 13:59:04;;;;;;;;;;;9.80;98.20;;;;;;5085422;28;19932;-75
2022/12/15 14:01:30;;;;;;;;;;;9.60;98.50;;;;;;5005098;28;144085;-77
2022/12/15 14:04:14;;;;;;;;;;;8.70;98.80;;;;;;5052878;28;20336;-75
2022/12/15 14:06:45;;;;;;;;;;;7.60;99.60;;;;;;4988981;28;208358;-74
2022/12/15 14:09:13;;;;;;;;;;;6.60;99.90;;;;;;5051356;28;19932;-76
2022/12/15 14:11:40;;;;;;;;;;;6.00;99.90;;;;;;4967368;28;200450;-76
2022/12/15 14:14:12;;;;;;;;;;;5.60;99.90;;;;;;5053997;28;20594;-76
2022/12/15 14:16:38;;;;;;;;;;;5.20;99.90;;;;;;4994013;28;207370;-77
2022/12/15 14:19:07;;;;;;;;;;;5.00;99.90;;;;;;5054735;28;19951;-75
2022/12/15 14:21:33;;;;;;;;;;;5.80;99.90;;;;;;4992056;28;207728;-76
2022/12/15 14:24:00;;;;;;;;;;;6.00;99.90;;;;;;5058328;28;20350;-76
2022/12/15 14:26:29;;;;;;;;;;;5.80;99.90;;;;;;5032497;27;203945;-76
2022/12/15 14:29:04;;;;;;;;;;;5.30;99.90;;;;;;5057662;28;19925;-76
2022/12/15 14:31:30;;;;;;;;;;;4.90;99.90;;;;;;5009518;28;208046;-76
2022/12/15 14:34:05;;;;;;;;;;;4.50;99.90;;;;;;5058318;28;19959;-76
2022/12/15 14:36:31;;;;;;;;;;;4.10;99.90;;;;;;4995759;28;212348;-76
2022/12/15 14:39:01;;;;;;;;;;;4.00;99.90;;;;;;5059756;28;20382;-75
2022/12/15 14:41:30;;;;;;;;;;;3.80;99.90;;;;;;5000453;28;194596;-75
2022/12/15 14:43:59;;;;;;;;;;;4.10;99.90;;;;;;5053170;28;19924;-76
2022/12/15 14:46:26;;;;;;;;;;;3.80;99.90;;;;;;5030093;28;165896;-76
2022/12/15 14:48:58;;;;;;;;;;;3.50;99.90;;;;;;5068903;28;19920;-76
2022/12/15 14:51:25;;;;;;;;;;;3.30;99.90;;;;;;5031092;28;150364;-76
2022/12/15 14:53:52;;;;;;;;;;;3.20;99.90;;;;;;5054617;28;19924;-76
2022/12/15 14:56:21;;;;;;;;;;;3.10;99.90;;;;;;5004132;28;209536;-77
2022/12/15 14:58:53;;;;;;;;;;;3.00;99.90;;;;;;5061259;28;19924;-77
2022/12/15 15:01:22;;;;;;;;;;;2.90;99.90;;;;;;5006576;28;207023;-77
2022/12/15 15:03:55;;;;;;;;;;;2.80;99.90;;;;;;5060828;28;19931;-76
2022/12/15 15:06:26;;;;;;;;;;;2.70;99.90;;;;;;5013654;28;159687;-76
2022/12/15 15:08:52;;;;;;;;;;;2.60;99.90;;;;;;5043774;28;19947;-77
2022/12/15 15:11:34;;;;;;;;;;;2.50;99.90;;;;;;5001655;28;165158;-77
2022/12/15 15:14:04;;;;;;;;;;;2.40;99.90;;;;;;5071619;28;19920;-76
2022/12/15 15:16:30;;;;;;;;;;;2.30;99.90;;;;;;4999918;28;146433;-76
2022/12/15 15:18:59;;;;;;;;;;;2.20;99.90;;;;;;5051717;28;20067;-74
2022/12/15 15:21:27;;;;;;;;;;;2.20;99.90;;;;;;5006405;28;211479;-76
2022/12/15 15:24:00;;;;;;;;;;;2.10;99.90;;;;;;5054435;28;20308;-75
2022/12/15 15:26:27;;;;;;;;;;;2.10;99.90;;;;;;5015445;28;205774;-75
2022/12/15 15:28:53;;;;;;;;;;;2.00;99.90;;;;;;5053051;28;19929;-75
2022/12/15 15:31:48;;;;;;;;;;;2.00;99.90;;;;;;5019684;28;151483;-75
2022/12/15 15:34:14;;;;;;;;;;;2.00;99.90;;;;;;5000667;28;19929;-74
2022/12/15 15:36:40;;;;;;;;;;;2.00;99.90;;;;;;4961606;28;208440;-75
2022/12/15 15:39:12;;;;;;;;;;;2.00;99.90;;;;;;5020864;28;19921;-75
2022/12/15 15:41:38;;;;;;;;;;;2.00;99.90;;;;;;4978095;28;185351;-75
2022/12/15 15:44:08;;;;;;;;;;;2.00;99.90;;;;;;5011472;28;19925;-75
2022/12/15 15:46:43;;;;;;;;;;;2.00;99.90;;;;;;4970885;28;213553;-76
2022/12/15 15:49:12;;;;;;;;;;;2.00;99.90;;;;;;5003391;28;19932;-76
2022/12/15 15:51:38;;;;;;;;;;;2.00;99.90;;;;;;4991696;28;39416;-74
2022/12/15 15:54:06;;;;;;;;;;;2.00;99.90;;;;;;4982878;28;20549;-74
2022/12/15 15:56:33;;;;;;;;;;;1.90;99.90;;;;;;4967055;28;97548;-73
2022/12/15 15:59:08;;;;;;;;;;;1.90;99.90;;;;;;4997889;28;20399;-74
2022/12/15 16:01:34;;;;;;;;;;;1.90;99.90;;;;;;4979993;28;214219;-76
2022/12/15 16:04:00;;;;;;;;;;;1.80;99.90;;;;;;4986629;28;19927;-75
2022/12/15 16:06:26;;;;;;;;;;;1.70;99.90;;;;;;4978248;28;233802;-74
2022/12/15 16:08:53;;;;;;;;;;;1.70;99.90;;;;;;5001935;28;19925;-75
2022/12/15 16:11:20;;;;;;;;;;;1.60;99.90;;;;;;5009290;28;207928;-75
2022/12/15 16:13:47;;;;;;;;;;;1.50;99.90;;;;;;5060964;28;19939;-74
2022/12/15 16:16:23;;;;;;;;;;;1.40;99.90;;;;;;5006510;28;150909;-74
2022/12/15 16:18:49;;;;;;;;;;;1.40;99.90;;;;;;5058803;28;19924;-73
2022/12/15 16:21:16;;;;;;;;;;;1.30;99.90;;;;;;5013021;28;209880;-73
2022/12/15 16:23:43;;;;;;;;;;;1.30;99.90;;;;;;5058475;28;19935;-73
2022/12/15 16:26:12;;;;;;;;;;;1.20;99.90;;;;;;5026274;28;208152;-73
2022/12/15 16:28:39;;;;;;;;;;;1.20;99.90;;;;;;5081909;28;19939;-74
2022/12/15 16:31:08;;;;;;;;;;;1.20;99.90;;;;;;5016941;28;218159;-73
2022/12/15 16:33:35;;;;;;;;;;;1.10;99.90;;;;;;5054971;28;20448;-74
2022/12/15 16:36:00;;;;;;;;;;;1.10;99.90;;;;;;5018069;27;195635;-74
2022/12/15 16:38:28;;;;;;;;;;;1.10;99.90;;;;;;5048770;28;19924;-73
2022/12/15 16:40:54;;;;;;;;;;;1.10;99.90;;;;;;5021782;28;207228;-73
2022/12/15 16:43:21;;;;;;;;;;;1.10;99.90;;;;;;5050792;28;19925;-74
2022/12/15 16:45:48;;;;;;;;;;;1.10;99.90;;;;;;5012862;28;158898;-73
2022/12/15 16:48:15;;;;;;;;;;;1.10;99.90;;;;;;5053803;28;20309;-73